Time;durP1;ratioP1;P1;durP2;ratioP2;P2;SDS_P1;SDS_P2;PMS_P1;PMS_P2;Temp;Humidity;BMP_temperature;BMP_pressure;BME280_temperature;BME280_humidity;BME280_pressure;Samples;Min_cycle;Max_cycle;Signal;HPM_P1;HPM_P2
2023/03/10 00:00:49;;;;;;;1.57;1.40;;;2.20;99.90;;;;;;5054088;28;20220;-86
2023/03/10 00:03:14;;;;;;;1.90;1.50;;;2.30;99.90;;;;;;5062054;28;20244;-85
2023/03/10 00:05:40;;;;;;;3.37;3.20;;;2.30;99.90;;;;;;5062250;28;20185;-87
2023/03/10 00:08:06;;;;;;;3.13;2.93;;;2.30;99.90;;;;;;5062261;28;20193;-88
2023/03/10 00:10:32;;;;;;;4.73;4.40;;;2.30;99.90;;;;;;5062006;28;20268;-86
2023/03/10 00:12:57;;;;;;;1.87;1.37;;;2.30;99.90;;;;;;5062036;28;20229;-88
2023/03/10 00:15:23;;;;;;;3.73;3.37;;;2.30;99.90;;;;;;5050728;28;20330;-87
2023/03/10 00:17:51;;;;;;;3.07;2.97;;;2.40;99.90;;;;;;5033795;28;20299;-85
2023/03/10 00:20:16;;;;;;;2.67;2.47;;;2.40;99.90;;;;;;5062837;28;20213;-85
2023/03/10 00:22:42;;;;;;;1.73;1.53;;;2.40;99.90;;;;;;5043523;28;20745;-86
2023/03/10 00:25:09;;;;;;;3.37;3.07;;;2.40;99.90;;;;;;5061578;28;20565;-88
2023/03/10 00:27:35;;;;;;;2.73;1.90;;;2.40;99.90;;;;;;5065030;28;20233;-86
2023/03/10 00:30:01;;;;;;;4.33;2.07;;;2.40;99.90;;;;;;5066043;28;20604;-86
2023/03/10 00:32:27;;;;;;;9.07;3.47;;;2.40;99.90;;;;;;5065610;28;20181;-86
2023/03/10 00:34:52;;;;;;;2.33;2.23;;;2.40;99.90;;;;;;5066114;28;20190;-86
2023/03/10 00:37:18;;;;;;;3.50;2.73;;;2.40;99.90;;;;;;5047139;28;20225;-87
2023/03/10 00:39:48;;;;;;;5.13;1.87;;;2.40;99.90;;;;;;5052501;28;20232;-86
2023/03/10 00:42:14;;;;;;;3.33;3.23;;;2.40;99.90;;;;;;5065896;28;20228;-86
2023/03/10 00:44:40;;;;;;;1.73;1.23;;;2.40;99.90;;;;;;5066504;28;20185;-87
2023/03/10 00:47:06;;;;;;;1.83;1.77;;;2.40;99.90;;;;;;5056816;28;20209;-86
2023/03/10 00:49:31;;;;;;;4.00;2.67;;;2.40;99.90;;;;;;5055643;28;20282;-86
2023/03/10 00:51:57;;;;;;;6.50;3.10;;;2.40;99.90;;;;;;5057584;28;20279;-86
2023/03/10 00:54:23;;;;;;;0.70;0.70;;;2.40;99.90;;;;;;5067594;28;20217;-86
2023/03/10 00:56:49;;;;;;;1.33;1.33;;;2.30;99.90;;;;;;5058583;28;20707;-86
2023/03/10 00:59:15;;;;;;;1.40;1.30;;;2.40;99.90;;;;;;5067908;28;20193;-87
2023/03/10 01:01:41;;;;;;;0.93;0.93;;;2.30;99.90;;;;;;5058673;28;20801;-87
2023/03/10 01:04:10;;;;;;;6.33;2.47;;;2.40;99.90;;;;;;5066633;28;20209;-86
2023/03/10 01:06:36;;;;;;;1.53;1.47;;;2.40;99.90;;;;;;5066726;28;20674;-86
2023/03/10 01:09:03;;;;;;;1.93;1.50;;;2.40;99.90;;;;;;5065902;28;20232;-86
2023/03/10 01:11:29;;;;;;;0.80;0.80;;;2.40;99.90;;;;;;5065395;28;20252;-86
2023/03/10 01:13:57;;;;;;;0.83;0.73;;;2.40;99.90;;;;;;5066124;28;20255;-86
2023/03/10 01:16:24;;;;;;;1.93;1.77;;;2.40;99.90;;;;;;5066173;28;20262;-87
2023/03/10 01:18:49;;;;;;;3.57;1.47;;;2.40;99.90;;;;;;5065564;28;20702;-86
2023/03/10 01:21:18;;;;;;;1.47;1.07;;;2.40;99.90;;;;;;5039626;28;20256;-88
2023/03/10 01:23:44;;;;;;;1.30;1.20;;;2.40;99.90;;;;;;5064351;28;20213;-86
2023/03/10 01:26:10;;;;;;;0.90;0.87;;;2.40;99.90;;;;;;5065701;28;20307;-87
2023/03/10 01:28:36;;;;;;;1.70;1.07;;;2.50;99.90;;;;;;5037187;28;20229;-87
2023/03/10 01:31:06;;;;;;;1.63;1.53;;;2.40;99.90;;;;;;5066096;28;20243;-87
2023/03/10 01:33:33;;;;;;;2.83;1.13;;;2.40;99.90;;;;;;5055720;28;20713;-87
2023/03/10 01:35:59;;;;;;;0.63;0.63;;;2.50;99.90;;;;;;5072247;28;20214;-86
2023/03/10 01:38:25;;;;;;;1.60;1.50;;;2.50;99.90;;;;;;5052403;28;21007;-88
2023/03/10 01:40:51;;;;;;;1.10;0.73;;;2.50;99.90;;;;;;5053855;28;20236;-86
2023/03/10 01:43:19;;;;;;;2.57;0.97;;;2.60;99.90;;;;;;5054805;28;20233;-86
2023/03/10 01:45:45;;;;;;;2.73;2.43;;;2.60;99.90;;;;;;5056439;28;20691;-86
2023/03/10 01:48:12;;;;;;;3.30;1.60;;;2.50;99.90;;;;;;5066466;28;20228;-88
2023/03/10 01:50:40;;;;;;;1.27;1.17;;;2.60;99.90;;;;;;5067157;28;20239;-86
2023/03/10 01:53:06;;;;;;;1.67;1.57;;;2.60;99.90;;;;;;5066737;28;20193;-85
2023/03/10 01:55:40;;;;;;;0.97;0.83;;;2.60;99.90;;;;;;5038109;28;20682;-87
2023/03/10 01:58:09;;;;;;;1.07;1.07;;;2.60;99.90;;;;;;5050782;28;20225;-87
2023/03/10 02:00:35;;;;;;;1.80;1.70;;;2.60;99.90;;;;;;5046356;28;20268;-86
2023/03/10 02:03:07;;;;;;;2.83;2.63;;;2.70;99.90;;;;;;5046341;28;20647;-87
2023/03/10 02:05:42;;;;;;;1.70;1.60;;;2.60;99.90;;;;;;5045739;28;20255;-86
2023/03/10 02:08:09;;;;;;;0.87;0.87;;;2.70;99.90;;;;;;5036831;28;20193;-86
2023/03/10 02:10:35;;;;;;;3.07;2.97;;;2.70;99.90;;;;;;5042988;28;20265;-86
2023/03/10 02:13:01;;;;;;;1.00;0.87;;;2.70;99.90;;;;;;5046596;28;20332;-87
2023/03/10 02:15:28;;;;;;;2.03;1.87;;;2.70;99.90;;;;;;5046614;28;20734;-86
2023/03/10 02:17:53;;;;;;;2.60;2.40;;;2.70;99.90;;;;;;5045889;28;20214;-88
2023/03/10 02:20:25;;;;;;;1.97;1.80;;;2.70;99.90;;;;;;5035327;28;20256;-88
2023/03/10 02:22:51;;;;;;;1.20;1.20;;;2.70;99.90;;;;;;5046721;28;20516;-86
2023/03/10 02:25:50;;;;;;;2.60;1.83;;;2.70;99.90;;;;;;5046350;28;20217;-86
2023/03/10 02:28:17;;;;;;;0.87;0.87;;;2.70;99.90;;;;;;5046389;28;20226;-87
2023/03/10 02:30:46;;;;;;;0.93;0.93;;;2.70;99.90;;;;;;5040354;28;20703;-86
2023/03/10 02:33:25;;;;;;;1.37;0.63;;;2.70;99.90;;;;;;5052866;28;20213;-87
2023/03/10 02:35:51;;;;;;;1.83;1.73;;;2.70;99.90;;;;;;5088485;28;20662;-86
2023/03/10 02:38:17;;;;;;;2.70;2.50;;;2.80;99.90;;;;;;5066164;28;20186;-87
2023/03/10 02:40:46;;;;;;;0.30;0.30;;;2.80;99.90;;;;;;5056233;28;20689;-86
2023/03/10 02:43:47;;;;;;;0.50;0.50;;;2.80;99.90;;;;;;5055061;28;20328;-86
2023/03/10 02:46:13;;;;;;;2.37;2.03;;;2.80;99.90;;;;;;5012072;28;20237;-88
2023/03/10 02:48:39;;;;;;;1.93;1.40;;;2.80;99.90;;;;;;5053402;28;20271;-87
2023/03/10 02:51:11;;;;;;;3.33;1.30;;;2.80;99.90;;;;;;5065052;28;20205;-88
2023/03/10 02:53:37;;;;;;;0.57;0.47;;;2.80;99.90;;;;;;5063777;28;20181;-86
2023/03/10 02:56:03;;;;;;;2.77;2.30;;;2.80;99.90;;;;;;5065795;28;20220;-87
2023/03/10 02:58:30;;;;;;;2.10;2.00;;;2.80;99.90;;;;;;5065528;28;20311;-87
2023/03/10 03:00:56;;;;;;;1.70;1.60;;;2.80;99.90;;;;;;5056386;28;20225;-87
2023/03/10 03:03:23;;;;;;;2.10;1.47;;;2.80;99.90;;;;;;5065110;28;20213;-87
2023/03/10 03:05:50;;;;;;;3.73;2.40;;;2.80;99.90;;;;;;5052697;28;20209;-87
2023/03/10 03:08:20;;;;;;;1.70;1.60;;;2.80;99.90;;;;;;5064723;28;20227;-86
2023/03/10 03:10:46;;;;;;;4.20;3.40;;;2.80;99.90;;;;;;5039906;28;20733;-86
2023/03/10 03:13:12;;;;;;;2.97;2.03;;;2.80;99.90;;;;;;5041701;28;20225;-85
2023/03/10 03:15:38;;;;;;;1.00;1.00;;;2.80;99.90;;;;;;5033242;28;20295;-87
2023/03/10 03:18:03;;;;;;;1.30;1.30;;;2.80;99.90;;;;;;5036882;28;20921;-86
2023/03/10 03:20:30;;;;;;;3.47;1.40;;;2.80;99.90;;;;;;5050505;28;20197;-88
2023/03/10 03:22:57;;;;;;;1.10;1.10;;;2.80;99.90;;;;;;5045804;28;20197;-87
2023/03/10 03:25:27;;;;;;;2.13;1.03;;;2.80;99.90;;;;;;5042509;28;20236;-87
2023/03/10 03:27:53;;;;;;;4.03;3.10;;;2.80;99.90;;;;;;5045566;28;20271;-87
2023/03/10 03:30:24;;;;;;;1.10;1.00;;;2.80;99.90;;;;;;5044323;28;20241;-86
2023/03/10 03:32:51;;;;;;;2.27;2.17;;;2.80;99.90;;;;;;5049870;28;20221;-87
2023/03/10 03:35:22;;;;;;;4.03;3.30;;;2.80;99.90;;;;;;5044533;28;20217;-87
2023/03/10 03:37:48;;;;;;;5.40;1.60;;;2.80;99.90;;;;;;5065277;28;20609;-87
2023/03/10 03:40:14;;;;;;;1.53;1.43;;;2.80;99.90;;;;;;5055233;28;20211;-87
2023/03/10 03:42:42;;;;;;;2.27;2.17;;;2.80;99.90;;;;;;5051039;28;20315;-87
2023/03/10 03:45:09;;;;;;;4.60;3.30;;;2.80;99.90;;;;;;5064806;28;20705;-86
2023/03/10 03:47:35;;;;;;;3.30;2.47;;;2.80;99.90;;;;;;5063835;28;20711;-88
2023/03/10 03:50:01;;;;;;;1.13;1.13;;;2.80;99.90;;;;;;5064659;28;20198;-86
2023/03/10 03:52:27;;;;;;;1.30;1.30;;;2.80;99.90;;;;;;5064144;28;20220;-86
2023/03/10 03:54:53;;;;;;;0.80;0.80;;;2.70;99.90;;;;;;5064057;28;20216;-87
2023/03/10 03:57:19;;;;;;;2.67;1.63;;;2.70;99.90;;;;;;5052647;28;20221;-87
2023/03/10 03:59:45;;;;;;;28.17;8.03;;;2.70;99.90;;;;;;5053371;28;20220;-87
2023/03/10 04:02:11;;;;;;;1.30;1.30;;;2.70;99.90;;;;;;5053225;28;20200;-86
2023/03/10 04:04:36;;;;;;;1.13;1.13;;;2.80;99.90;;;;;;5063878;28;20217;-87
2023/03/10 04:07:02;;;;;;;1.67;1.57;;;2.80;99.90;;;;;;5055051;28;20739;-87
2023/03/10 04:09:28;;;;;;;2.37;2.00;;;2.70;99.90;;;;;;5052969;28;20217;-86
2023/03/10 04:11:54;;;;;;;0.97;0.93;;;2.70;99.90;;;;;;5038817;28;20648;-89
2023/03/10 04:14:20;;;;;;;0.83;0.83;;;2.70;99.90;;;;;;5064606;28;20851;-87
2023/03/10 04:16:46;;;;;;;1.67;1.67;;;2.70;99.90;;;;;;5052697;28;20221;-87
2023/03/10 04:19:12;;;;;;;1.83;1.73;;;2.70;99.90;;;;;;5055537;28;20211;-86
2023/03/10 04:21:38;;;;;;;4.13;1.80;;;2.70;99.90;;;;;;5069796;28;20304;-86
2023/03/10 04:24:04;;;;;;;5.10;1.37;;;2.70;99.90;;;;;;5063802;28;20748;-88
2023/03/10 04:26:30;;;;;;;9.57;3.90;;;2.70;99.90;;;;;;5063959;28;20304;-87
2023/03/10 04:28:57;;;;;;;1.43;1.43;;;2.70;99.90;;;;;;5064570;28;20220;-86
2023/03/10 04:31:23;;;;;;;1.70;1.63;;;2.70;99.90;;;;;;5063842;28;20667;-87
2023/03/10 04:33:49;;;;;;;0.87;0.87;;;2.70;99.90;;;;;;5053701;28;20212;-85
2023/03/10 04:36:15;;;;;;;3.00;2.80;;;2.60;99.90;;;;;;5063973;28;20227;-88
2023/03/10 04:38:41;;;;;;;3.20;1.37;;;2.60;99.90;;;;;;5063726;28;20185;-86
2023/03/10 04:41:08;;;;;;;1.87;1.47;;;2.60;99.90;;;;;;5054108;28;20189;-88
2023/03/10 04:43:34;;;;;;;2.27;1.87;;;2.60;99.90;;;;;;5063796;28;20221;-88
2023/03/10 04:46:02;;;;;;;0.83;0.83;;;2.50;99.90;;;;;;5032955;28;20291;-86
2023/03/10 04:48:28;;;;;;;2.57;2.37;;;2.40;99.90;;;;;;5047127;28;20222;-85
2023/03/10 04:50:59;;;;;;;11.13;4.27;;;2.30;99.90;;;;;;5025411;28;20244;-86
2023/03/10 04:53:25;;;;;;;2.83;2.67;;;2.30;99.90;;;;;;5025439;28;20236;-85
2023/03/10 04:55:51;;;;;;;8.27;6.03;;;2.20;99.90;;;;;;5044347;28;20202;-90
2023/03/10 04:58:18;;;;;;;2.80;2.60;;;2.30;99.90;;;;;;5017531;28;20228;-85
2023/03/10 05:00:44;;;;;;;1.67;1.63;;;2.20;99.90;;;;;;5043104;28;20218;-85
2023/03/10 05:03:09;;;;;;;2.13;1.93;;;2.20;99.90;;;;;;5036316;28;20217;-84
2023/03/10 05:05:36;;;;;;;2.70;2.60;;;2.20;99.90;;;;;;5049356;28;20196;-85
2023/03/10 05:08:03;;;;;;;2.93;1.93;;;2.20;99.90;;;;;;5044486;28;20225;-86
2023/03/10 05:10:29;;;;;;;1.57;1.50;;;2.30;99.90;;;;;;5028190;28;20238;-85
2023/03/10 05:12:54;;;;;;;2.63;2.10;;;2.30;99.90;;;;;;5037077;28;20247;-85
2023/03/10 05:15:20;;;;;;;1.53;1.53;;;2.30;99.90;;;;;;5066901;28;20217;-89
2023/03/10 05:17:46;;;;;;;2.83;2.60;;;2.20;99.90;;;;;;5037297;28;20703;-85
2023/03/10 05:20:13;;;;;;;2.30;2.20;;;2.30;99.90;;;;;;5047306;28;20285;-85
2023/03/10 05:22:40;;;;;;;2.97;1.67;;;2.30;99.90;;;;;;5046854;28;20263;-89
2023/03/10 05:25:06;;;;;;;2.10;1.93;;;2.30;99.90;;;;;;5062247;28;20632;-85
2023/03/10 05:27:36;;;;;;;1.53;1.43;;;2.30;99.90;;;;;;5060857;28;20229;-85
2023/03/10 05:30:05;;;;;;;1.73;1.63;;;2.30;99.90;;;;;;5047231;28;20216;-87
2023/03/10 05:32:34;;;;;;;7.97;2.07;;;2.20;99.90;;;;;;5037143;28;20178;-84
2023/03/10 05:35:00;;;;;;;0.50;0.50;;;2.20;99.90;;;;;;5036505;28;20243;-86
2023/03/10 05:37:25;;;;;;;2.83;2.63;;;2.30;99.90;;;;;;5046621;28;20457;-85
2023/03/10 05:39:51;;;;;;;4.30;3.20;;;2.30;99.90;;;;;;5046777;28;20562;-86
2023/03/10 05:42:17;;;;;;;1.30;1.30;;;2.30;99.90;;;;;;5038028;28;20218;-87
2023/03/10 05:44:43;;;;;;;1.57;1.47;;;2.40;99.90;;;;;;5035496;28;20304;-86
2023/03/10 05:47:09;;;;;;;0.67;0.67;;;2.40;99.90;;;;;;5047746;28;20217;-86
2023/03/10 05:49:35;;;;;;;3.53;3.27;;;2.40;99.90;;;;;;5046518;28;20305;-85
2023/03/10 05:52:01;;;;;;;4.23;3.93;;;2.40;99.90;;;;;;5037948;28;20762;-86
2023/03/10 05:54:27;;;;;;;5.43;2.37;;;2.40;99.90;;;;;;5044093;28;20256;-87
2023/03/10 05:56:52;;;;;;;1.00;1.00;;;2.40;99.90;;;;;;5042122;28;20226;-85
2023/03/10 05:59:18;;;;;;;6.07;3.43;;;2.40;99.90;;;;;;5036243;28;20198;-86
2023/03/10 06:01:44;;;;;;;1.93;1.83;;;2.40;99.90;;;;;;5064370;28;20213;-85
2023/03/10 06:04:09;;;;;;;4.67;3.70;;;2.40;99.90;;;;;;5065178;28;20212;-86
2023/03/10 06:06:35;;;;;;;2.60;2.23;;;2.50;99.90;;;;;;5056832;28;20819;-86
2023/03/10 06:09:02;;;;;;;2.77;2.67;;;2.40;99.90;;;;;;5052134;28;20237;-86
2023/03/10 06:11:28;;;;;;;1.93;1.70;;;2.50;99.90;;;;;;5064264;28;20224;-86
2023/03/10 06:13:53;;;;;;;2.43;2.37;;;2.50;99.90;;;;;;5065313;28;20658;-85
2023/03/10 06:16:19;;;;;;;3.23;2.37;;;2.40;99.90;;;;;;5031031;28;20693;-86
2023/03/10 06:18:45;;;;;;;1.97;1.87;;;2.50;99.90;;;;;;5045775;28;20236;-89
2023/03/10 06:21:13;;;;;;;1.70;1.60;;;2.40;99.90;;;;;;5061308;28;20221;-86
2023/03/10 06:23:39;;;;;;;3.73;3.50;;;2.40;99.90;;;;;;5044950;28;20269;-86
2023/03/10 06:26:08;;;;;;;1.43;1.30;;;2.40;99.90;;;;;;5045765;28;20644;-86
2023/03/10 06:28:36;;;;;;;2.43;2.23;;;2.40;99.90;;;;;;5043687;28;20703;-88
2023/03/10 06:31:11;;;;;;;1.23;1.13;;;2.30;99.90;;;;;;5043654;28;20249;-85
2023/03/10 06:33:37;;;;;;;0.87;0.87;;;2.30;99.90;;;;;;5043393;28;20217;-85
2023/03/10 06:36:04;;;;;;;3.17;2.97;;;2.20;99.90;;;;;;5042961;28;20218;-88
2023/03/10 06:38:30;;;;;;;0.97;0.97;;;2.10;99.90;;;;;;5033250;28;20217;-84
2023/03/10 06:40:57;;;;;;;5.83;2.20;;;2.10;99.90;;;;;;5043844;28;20197;-86
2023/03/10 06:43:23;;;;;;;1.43;1.43;;;2.00;99.90;;;;;;5042916;28;20222;-86
2023/03/10 06:45:49;;;;;;;1.80;1.23;;;1.90;99.90;;;;;;5034949;28;20248;-85
2023/03/10 06:48:15;;;;;;;0.70;0.70;;;1.80;99.90;;;;;;5043547;28;20309;-88
2023/03/10 06:50:43;;;;;;;3.40;3.10;;;1.70;99.90;;;;;;5045199;28;20194;-87
2023/03/10 06:53:10;;;;;;;1.80;1.70;;;1.60;99.90;;;;;;5045959;28;20182;-88
2023/03/10 06:55:36;;;;;;;2.37;2.20;;;1.50;99.90;;;;;;5045293;28;20367;-86
2023/03/10 06:58:02;;;;;;;1.70;1.27;;;1.50;99.90;;;;;;5044725;28;20233;-87
2023/03/10 07:00:28;;;;;;;1.57;1.37;;;1.50;99.90;;;;;;5045379;28;20218;-87
2023/03/10 07:02:54;;;;;;;3.20;2.97;;;1.40;99.90;;;;;;5046466;28;20214;-91
2023/03/10 07:05:21;;;;;;;1.17;1.07;;;1.40;99.90;;;;;;5038519;28;20726;-89
2023/03/10 07:07:49;;;;;;;2.37;2.27;;;1.40;99.90;;;;;;5072750;28;20230;-92
2023/03/10 07:10:22;;;;;;;1.63;1.53;;;1.40;99.90;;;;;;5030829;28;20222;-93
2023/03/10 07:12:53;;;;;;;5.47;3.50;;;1.30;99.90;;;;;;5049895;28;20230;-90
2023/03/10 07:15:21;;;;;;;3.80;1.43;;;1.30;99.90;;;;;;5028570;28;20218;-90
2023/03/10 07:17:47;;;;;;;6.10;1.87;;;1.30;99.90;;;;;;5024385;28;20298;-89
2023/03/10 07:20:13;;;;;;;1.23;1.23;;;1.30;99.90;;;;;;5010773;28;20190;-91
2023/03/10 07:22:38;;;;;;;1.50;1.13;;;1.30;99.90;;;;;;5058311;28;20737;-88
2023/03/10 07:25:06;;;;;;;1.57;1.47;;;1.20;99.90;;;;;;5051285;28;20225;-88
2023/03/10 07:27:32;;;;;;;2.43;1.97;;;1.20;99.90;;;;;;5059566;28;20249;-90
2023/03/10 07:29:57;;;;;;;1.60;1.50;;;1.20;99.90;;;;;;5071843;28;20224;-92
2023/03/10 07:32:23;;;;;;;2.57;1.90;;;1.20;99.90;;;;;;5042387;28;20185;-89
2023/03/10 07:34:52;;;;;;;0.70;0.70;;;1.20;99.90;;;;;;5078466;28;20229;-92
2023/03/10 07:37:18;;;;;;;3.20;2.30;;;1.20;99.90;;;;;;5059013;28;20193;-90
2023/03/10 07:39:43;;;;;;;10.10;5.40;;;1.20;99.90;;;;;;5059369;28;20221;-94
2023/03/10 07:42:09;;;;;;;1.20;0.63;;;1.20;99.90;;;;;;5074535;28;20209;-91
2023/03/10 07:44:35;;;;;;;1.13;0.73;;;1.20;99.90;;;;;;5072691;28;20186;-91
2023/03/10 07:47:01;;;;;;;0.93;0.93;;;1.20;99.90;;;;;;5068709;28;20213;-90
2023/03/10 07:49:27;;;;;;;3.07;2.87;;;1.20;99.90;;;;;;5068749;28;20269;-91
2023/03/10 07:51:53;;;;;;;5.97;2.67;;;1.20;99.90;;;;;;5068424;28;20225;-90
2023/03/10 07:54:18;;;;;;;2.17;2.07;;;1.20;99.90;;;;;;5058701;28;20213;-91
2023/03/10 07:56:44;;;;;;;4.03;1.80;;;1.20;99.90;;;;;;5039534;28;20226;-90
2023/03/10 07:59:10;;;;;;;1.27;1.13;;;1.20;99.90;;;;;;5010299;28;20194;-94
2023/03/10 08:01:36;;;;;;;1.20;1.17;;;1.20;99.90;;;;;;5038781;28;20224;-89
2023/03/10 08:04:01;;;;;;;1.13;1.10;;;1.20;99.90;;;;;;5040168;28;20225;-95
2023/03/10 08:06:27;;;;;;;3.43;3.03;;;1.20;99.90;;;;;;5039691;28;20232;-90
2023/03/10 08:08:54;;;;;;;4.67;2.60;;;1.20;99.90;;;;;;5035733;28;20245;-90
2023/03/10 08:11:21;;;;;;;3.10;2.67;;;1.20;99.90;;;;;;5046908;28;20230;-91
2023/03/10 08:13:47;;;;;;;4.97;1.40;;;1.20;99.90;;;;;;5044611;28;20234;-88
2023/03/10 08:16:14;;;;;;;1.87;1.33;;;1.20;99.90;;;;;;5059191;28;20248;-86
2023/03/10 08:18:40;;;;;;;2.17;1.97;;;1.20;99.90;;;;;;5064180;28;20303;-86
2023/03/10 08:21:06;;;;;;;0.30;0.30;;;1.30;99.90;;;;;;5065198;28;20397;-93
2023/03/10 08:23:33;;;;;;;0.30;0.30;;;1.20;99.90;;;;;;5064799;28;20177;-87
2023/03/10 08:26:01;;;;;;;0.30;0.30;;;1.20;99.90;;;;;;5054372;28;20217;-87
2023/03/10 08:28:29;;;;;;;0.30;0.30;;;1.20;99.90;;;;;;5064336;28;20233;-90
2023/03/10 08:30:56;;;;;;;0.23;0.23;;;1.30;99.90;;;;;;5064764;28;20213;-89
2023/03/10 08:33:22;;;;;;;0.30;0.30;;;1.30;99.90;;;;;;5054674;28;20249;-90
2023/03/10 08:35:48;;;;;;;0.30;0.30;;;1.30;99.90;;;;;;5070836;28;20240;-88
2023/03/10 08:38:13;;;;;;;0.30;0.30;;;1.30;99.90;;;;;;5071993;28;20223;-88
2023/03/10 08:40:39;;;;;;;0.30;0.30;;;1.30;99.90;;;;;;5058160;28;20221;-88
2023/03/10 08:43:05;;;;;;;0.30;0.30;;;1.30;99.90;;;;;;5053087;28;20220;-89
2023/03/10 08:45:32;;;;;;;0.30;0.30;;;1.30;99.90;;;;;;5053060;28;20244;-90
2023/03/10 08:47:57;;;;;;;0.30;0.30;;;1.30;99.90;;;;;;5055533;28;20224;-88
2023/03/10 08:50:25;;;;;;;0.20;0.20;;;1.30;99.90;;;;;;5068872;28;20190;-87
2023/03/10 08:52:51;;;;;;;0.30;0.30;;;1.40;99.90;;;;;;5056575;28;20200;-89
2023/03/10 08:55:17;;;;;;;0.30;0.30;;;1.30;99.90;;;;;;5058495;28;20221;-89
2023/03/10 08:57:44;;;;;;;0.20;0.20;;;1.30;99.90;;;;;;5058313;28;20228;-88
2023/03/10 09:00:11;;;;;;;0.30;0.30;;;1.40;99.90;;;;;;5044396;28;20217;-89
2023/03/10 09:02:37;;;;;;;0.30;0.30;;;1.40;99.90;;;;;;5039363;28;20194;-90
2023/03/10 09:05:03;;;;;;;0.20;0.20;;;1.50;99.90;;;;;;5048529;28;20297;-88
2023/03/10 09:07:29;;;;;;;0.30;0.30;;;1.40;99.90;;;;;;5038137;28;20775;-88
2023/03/10 09:09:54;;;;;;;0.30;0.30;;;1.40;99.90;;;;;;5020166;28;20218;-88
2023/03/10 09:12:20;;;;;;;0.20;0.20;;;1.40;99.90;;;;;;5053784;28;20239;-88
2023/03/10 09:14:46;;;;;;;0.30;0.30;;;1.50;99.90;;;;;;5042076;28;20773;-87
2023/03/10 09:17:12;;;;;;;0.30;0.30;;;1.50;99.90;;;;;;5049718;28;20206;-89
2023/03/10 09:19:38;;;;;;;0.40;0.40;;;1.50;99.90;;;;;;5036101;28;20643;-89
2023/03/10 09:22:04;;;;;;;0.30;0.30;;;1.50;99.90;;;;;;5036165;28;20685;-89
2023/03/10 09:24:30;;;;;;;0.30;0.30;;;1.50;99.90;;;;;;5070158;28;20230;-89
2023/03/10 09:26:56;;;;;;;0.23;0.23;;;1.50;99.90;;;;;;5049386;28;20362;-90
2023/03/10 09:29:21;;;;;;;0.30;0.30;;;1.50;99.90;;;;;;5022747;28;20193;-91
2023/03/10 09:31:47;;;;;;;0.30;0.30;;;1.50;99.90;;;;;;5057920;28;20212;-90
2023/03/10 09:34:13;;;;;;;0.30;0.30;;;1.60;99.90;;;;;;5069404;28;20246;-93
2023/03/10 09:36:41;;;;;;;0.30;0.30;;;1.60;99.90;;;;;;5058422;28;20542;-90
2023/03/10 09:39:07;;;;;;;0.27;0.27;;;1.60;99.90;;;;;;5067385;28;20213;-89
2023/03/10 09:42:03;;;;;;;0.30;0.30;;;1.60;99.90;;;;;;5041039;28;20561;-90
2023/03/10 09:44:53;;;;;;;0.30;0.30;;;1.70;99.90;;;;;;5068798;28;20281;-88
2023/03/10 09:47:22;;;;;;;0.30;0.30;;;1.60;99.90;;;;;;5067649;28;20300;-88
2023/03/10 09:49:54;;;;;;;0.30;0.30;;;1.70;99.90;;;;;;5065736;28;20695;-87
2023/03/10 09:52:35;;;;;;;0.30;0.30;;;1.60;99.90;;;;;;5066245;28;20267;-86
2023/03/10 09:55:14;;;;;;;0.30;0.30;;;1.60;99.90;;;;;;5066628;28;20336;-88
2023/03/10 09:57:40;;;;;;;0.30;0.30;;;1.60;99.90;;;;;;5057938;28;20220;-88
2023/03/10 10:00:15;;;;;;;0.30;0.30;;;1.70;99.90;;;;;;5066180;28;20221;-87
2023/03/10 10:02:45;;;;;;;0.30;0.30;;;1.70;99.90;;;;;;5066300;28;20273;-87
2023/03/10 10:05:22;;;;;;;0.20;0.20;;;1.70;99.90;;;;;;5086767;28;20188;-87
2023/03/10 10:07:52;;;;;;;0.30;0.30;;;1.70;99.90;;;;;;5065508;28;20725;-88
2023/03/10 10:10:25;;;;;;;0.30;0.30;;;1.60;99.90;;;;;;5065950;28;20791;-86
2023/03/10 10:12:53;;;;;;;0.20;0.20;;;1.70;99.90;;;;;;5056026;28;20558;-87
2023/03/10 10:15:22;;;;;;;0.30;0.30;;;1.60;99.90;;;;;;5055430;28;20444;-84
2023/03/10 10:18:09;;;;;;;0.20;0.20;;;1.60;99.90;;;;;;5065857;28;20217;-87
2023/03/10 10:20:49;;;;;;;0.30;0.30;;;1.80;99.90;;;;;;5065690;28;20185;-85
2023/03/10 10:23:20;;;;;;;0.30;0.30;;;1.80;99.90;;;;;;5055000;28;20287;-85
2023/03/10 10:25:46;;;;;;;0.20;0.20;;;1.70;99.90;;;;;;5054852;28;20220;-87
2023/03/10 10:28:24;;;;;;;0.20;0.20;;;1.80;99.90;;;;;;5079735;28;20627;-89
2023/03/10 10:31:16;;;;;;;0.30;0.30;;;1.80;99.90;;;;;;5074944;28;20224;-88
2023/03/10 10:33:57;;;;;;;0.30;0.30;;;1.70;99.90;;;;;;5074358;28;20231;-88
2023/03/10 10:36:35;;;;;;;0.20;0.20;;;1.70;99.90;;;;;;5064011;28;20348;-86
2023/03/10 10:39:19;;;;;;;0.30;0.30;;;1.70;99.90;;;;;;5075425;28;20244;-89
2023/03/10 10:41:44;;;;;;;0.40;0.40;;;1.80;99.90;;;;;;5079475;28;20217;-87
2023/03/10 10:44:16;;;;;;;0.30;0.30;;;1.80;99.90;;;;;;5065509;28;20260;-90
2023/03/10 10:46:54;;;;;;;0.30;0.30;;;1.90;99.90;;;;;;5064508;28;20236;-88
2023/03/10 10:49:26;;;;;;;0.30;0.30;;;1.90;99.90;;;;;;5097265;28;20644;-87
2023/03/10 10:52:03;;;;;;;0.30;0.30;;;2.00;99.90;;;;;;5064763;28;20267;-88
2023/03/10 10:54:42;;;;;;;0.27;0.27;;;2.00;99.90;;;;;;5066141;28;20220;-89
2023/03/10 10:57:27;;;;;;;0.20;0.20;;;2.10;99.90;;;;;;5059742;28;20580;-89
2023/03/10 10:59:53;;;;;;;0.30;0.30;;;2.10;99.90;;;;;;5075069;28;20216;-86
2023/03/10 11:02:33;;;;;;;0.20;0.20;;;2.20;99.90;;;;;;5048741;28;20548;-88
2023/03/10 11:05:14;;;;;;;0.30;0.30;;;2.20;99.90;;;;;;5066707;28;20311;-89
2023/03/10 11:07:40;;;;;;;0.30;0.30;;;2.20;99.90;;;;;;5073187;28;20224;-86
2023/03/10 11:10:17;;;;;;;0.30;0.30;;;2.30;99.90;;;;;;5073669;28;20229;-88
2023/03/10 11:13:00;;;;;;;0.30;0.30;;;2.30;99.90;;;;;;5072518;28;20256;-87
2023/03/10 11:15:42;;;;;;;0.30;0.30;;;2.40;99.90;;;;;;5074524;28;20620;-87
2023/03/10 11:18:30;;;;;;;0.30;0.30;;;2.40;99.90;;;;;;5074062;28;20212;-89
2023/03/10 11:21:18;;;;;;;0.30;0.30;;;2.40;99.90;;;;;;5062281;28;21228;-90
2023/03/10 11:24:00;;;;;;;0.30;0.30;;;2.40;99.90;;;;;;5064377;28;20801;-89
2023/03/10 11:26:44;;;;;;;0.20;0.20;;;2.50;99.90;;;;;;5060620;28;20209;-90
2023/03/10 11:29:30;;;;;;;0.30;0.30;;;2.60;99.90;;;;;;5074473;28;20185;-89
2023/03/10 11:32:32;;;;;;;0.20;0.20;;;2.70;99.90;;;;;;5052600;28;20213;-87
2023/03/10 11:35:09;;;;;;;0.30;0.30;;;2.70;99.90;;;;;;5010752;28;20604;-85
2023/03/10 11:37:58;;;;;;;0.30;0.30;;;2.70;99.90;;;;;;5049996;28;20224;-86
2023/03/10 11:40:48;;;;;;;1.07;1.07;;;2.70;99.90;;;;;;5042293;28;20282;-89
2023/03/10 11:43:35;;;;;;;0.30;0.30;;;2.80;99.90;;;;;;5052916;28;20210;-90
2023/03/10 11:46:30;;;;;;;0.20;0.20;;;2.70;99.90;;;;;;5055805;28;20301;-87
2023/03/10 11:49:09;;;;;;;0.30;0.30;;;2.90;99.90;;;;;;5051659;28;20225;-87
2023/03/10 11:52:01;;;;;;;0.20;0.20;;;2.90;99.90;;;;;;5040985;28;20527;-87
2023/03/10 11:54:33;;;;;;;0.20;0.20;;;2.90;99.90;;;;;;5053465;28;20206;-88
2023/03/10 11:57:08;;;;;;;0.30;0.30;;;2.90;99.90;;;;;;5052485;28;20222;-90
2023/03/10 11:59:39;;;;;;;0.30;0.30;;;2.90;99.90;;;;;;5053226;28;20316;-88
2023/03/10 12:02:09;;;;;;;0.30;0.30;;;2.80;99.90;;;;;;5052997;28;20352;-89
2023/03/10 12:05:05;;;;;;;0.20;0.20;;;2.90;99.90;;;;;;5052923;28;20222;-87
2023/03/10 12:07:41;;;;;;;1.47;1.40;;;2.80;99.90;;;;;;5048299;28;20707;-88
2023/03/10 12:10:10;;;;;;;0.40;0.40;;;2.70;99.90;;;;;;5049947;28;20295;-87
2023/03/10 12:12:50;;;;;;;0.30;0.30;;;2.70;99.90;;;;;;5042748;28;20269;-87
2023/03/10 12:15:21;;;;;;;1.10;1.10;;;2.70;99.90;;;;;;5052583;28;20201;-88
2023/03/10 12:17:49;;;;;;;0.53;0.53;;;2.70;99.90;;;;;;5053620;28;20304;-88
2023/03/10 12:20:16;;;;;;;0.20;0.20;;;2.70;99.90;;;;;;5039176;28;20283;-88
2023/03/10 12:22:46;;;;;;;0.40;0.40;;;2.80;99.90;;;;;;5052182;28;20361;-89
2023/03/10 12:25:36;;;;;;;1.40;0.67;;;2.80;99.90;;;;;;5046266;28;20232;-88
2023/03/10 12:28:28;;;;;;;0.73;0.70;;;2.80;99.90;;;;;;5061744;28;20669;-88
2023/03/10 12:31:31;;;;;;;1.13;0.83;;;2.70;99.90;;;;;;5042224;28;20203;-88
2023/03/10 12:34:17;;;;;;;1.17;1.17;;;2.80;99.90;;;;;;5066525;28;20224;-89
2023/03/10 12:36:46;;;;;;;0.60;0.60;;;2.90;99.90;;;;;;5071309;28;20213;-89
2023/03/10 12:39:36;;;;;;;0.80;0.80;;;3.00;99.90;;;;;;5061907;28;20253;-88
2023/03/10 12:42:29;;;;;;;0.33;0.33;;;3.00;99.90;;;;;;5077465;28;20232;-88
2023/03/10 12:45:27;;;;;;;1.87;1.47;;;3.10;99.90;;;;;;5062443;28;20213;-89
2023/03/10 12:48:17;;;;;;;4.53;2.73;;;3.20;99.90;;;;;;5071794;28;20314;-89
2023/03/10 12:50:51;;;;;;;0.67;0.67;;;3.10;99.90;;;;;;5070276;28;20281;-88
2023/03/10 12:53:55;;;;;;;1.63;1.53;;;3.20;99.90;;;;;;5070932;28;20222;-88
2023/03/10 12:56:41;;;;;;;0.60;0.60;;;3.30;99.90;;;;;;5094929;28;20228;-88
2023/03/10 12:59:24;;;;;;;0.80;0.80;;;3.20;99.90;;;;;;5072767;28;20205;-87
2023/03/10 13:01:51;;;;;;;0.63;0.50;;;3.40;99.90;;;;;;5060574;28;20694;-88
2023/03/10 13:04:20;;;;;;;0.40;0.40;;;3.30;99.90;;;;;;5039979;28;20221;-87
2023/03/10 13:06:47;;;;;;;0.93;0.93;;;3.30;99.90;;;;;;5064957;28;20210;-87
2023/03/10 13:09:23;;;;;;;0.20;0.20;;;3.30;99.90;;;;;;5058403;28;20635;-86
2023/03/10 13:12:06;;;;;;;0.63;0.63;;;3.40;99.90;;;;;;5056587;28;20244;-90